Terminal Aerodrome Forecast
Issued by NWS

Home | Current Version | Previous Version | Text Only | Print | Product List | Glossary On
Versions: 1 2 3 4 5 6 7 8 9 10 11 12 13 14
000
FTUS45 KGJT 210520
TAFTEX
TAF
KTEX 210520Z 2106/2206 13004KT P6SM SCT120
     FM211800 28006KT P6SM VCTS SCT070CB BKN200
     FM212200 33006KT P6SM VCTS SCT080CB BKN110
     FM220000 35005KT P6SM SCT070 BKN110
     FM220500 VRB03KT P6SM FEW060 SCT110=

USA.gov is the U.S. government's official web portal to all federal, state and local government web resources and services.